Time;durP1;ratioP1;P1;durP2;ratioP2;P2;SDS_P1;SDS_P2;PMS_P1;PMS_P2;Temp;Humidity;BMP_temperature;BMP_pressure;BME280_temperature;BME280_humidity;BME280_pressure;Samples;Min_cycle;Max_cycle;Signal;HPM_P1;HPM_P2
2022/03/03 00:00:43;;;;;;;29.73;17.57;;;;;;;5.92;45.99;97683.66;5032975;28;20739;-72
2022/03/03 00:03:08;;;;;;;25.13;16.53;;;;;;;5.90;45.33;97675.16;5033033;28;20192;-71
2022/03/03 00:05:34;;;;;;;29.80;17.53;;;;;;;5.89;45.84;97678.69;5034890;28;20184;-72
2022/03/03 00:07:59;;;;;;;31.60;17.40;;;;;;;5.90;45.95;97677.75;5032710;28;20217;-72
2022/03/03 00:10:25;;;;;;;24.57;17.17;;;;;;;5.93;45.91;97679.28;5032206;28;20218;-73
2022/03/03 00:12:50;;;;;;;26.90;16.43;;;;;;;5.90;45.78;97674.31;5015088;28;20182;-72
2022/03/03 00:15:16;;;;;;;26.20;16.90;;;;;;;5.88;45.63;97679.63;5032124;28;20201;-72
2022/03/03 00:17:41;;;;;;;24.37;17.00;;;;;;;5.88;45.47;97674.44;5032363;28;20193;-72
2022/03/03 00:20:07;;;;;;;25.53;17.43;;;;;;;5.84;46.07;97663.41;5037001;28;20309;-74
2022/03/03 00:22:32;;;;;;;26.77;16.60;;;;;;;5.82;45.66;97672.25;5025655;28;20665;-72
2022/03/03 00:24:58;;;;;;;25.07;15.77;;;;;;;5.84;45.61;97681.63;5032327;28;20172;-71
2022/03/03 00:27:23;;;;;;;26.27;16.53;;;;;;;5.84;45.95;97680.78;5032225;28;20187;-71
2022/03/03 00:29:49;;;;;;;26.03;17.40;;;;;;;5.80;45.71;97681.94;5031915;28;20740;-72
2022/03/03 00:32:14;;;;;;;30.00;16.17;;;;;;;5.75;45.90;97678.84;5032170;28;20257;-72
2022/03/03 00:34:40;;;;;;;24.53;16.33;;;;;;;5.74;46.00;97675.41;5031678;28;20198;-72
2022/03/03 00:37:05;;;;;;;30.07;17.30;;;;;;;5.67;45.83;97674.19;5032184;28;20211;-71
2022/03/03 00:39:31;;;;;;;27.10;16.03;;;;;;;5.67;45.60;97680.22;5032159;28;20210;-72
2022/03/03 00:41:56;;;;;;;29.60;16.90;;;;;;;5.68;46.28;97681.88;5031909;28;20195;-72
2022/03/03 00:44:22;;;;;;;27.03;17.37;;;;;;;5.63;45.71;97686.59;5031630;28;20291;-71
2022/03/03 00:46:47;;;;;;;22.50;15.73;;;;;;;5.57;46.20;97689.63;5031762;28;20205;-72
2022/03/03 00:49:12;;;;;;;33.77;17.70;;;;;;;5.54;46.29;97682.88;5031938;28;20220;-71
2022/03/03 00:51:38;;;;;;;25.47;16.13;;;;;;;5.51;45.85;97690.06;5032063;28;20267;-72
2022/03/03 00:54:03;;;;;;;27.03;17.43;;;;;;;5.33;46.69;97682.63;5013961;28;20176;-72
2022/03/03 00:56:29;;;;;;;27.43;16.53;;;;;;;5.42;46.78;97686.34;5031485;28;20265;-71
2022/03/03 00:58:54;;;;;;;25.70;16.10;;;;;;;5.48;46.55;97685.91;5031500;28;20208;-72
2022/03/03 01:01:20;;;;;;;26.63;16.10;;;;;;;5.42;46.37;97685.53;5031225;28;20192;-73
2022/03/03 01:03:45;;;;;;;27.60;16.80;;;;;;;5.48;46.20;97685.91;5031637;28;20265;-71
2022/03/03 01:06:11;;;;;;;26.10;17.50;;;;;;;5.46;46.37;97685.19;5030837;28;20592;-72
2022/03/03 01:08:37;;;;;;;25.83;17.30;;;;;;;5.46;46.58;97682.59;5031742;28;20330;-72
2022/03/03 01:11:05;;;;;;;23.83;16.93;;;;;;;5.47;46.34;97678.22;5013659;28;20191;-73
2022/03/03 01:13:30;;;;;;;25.37;17.00;;;;;;;5.47;46.30;97678.22;5030978;28;20196;-73
2022/03/03 01:15:56;;;;;;;31.00;18.27;;;;;;;5.45;46.08;97667.09;5012788;28;20548;-71
2022/03/03 01:18:22;;;;;;;30.53;16.70;;;;;;;5.46;46.35;97671.34;5031373;28;20666;-73
2022/03/03 01:20:47;;;;;;;24.57;15.97;;;;;;;5.43;46.10;97676.75;5031379;28;20681;-73
2022/03/03 01:23:13;;;;;;;23.57;15.43;;;;;;;5.41;46.70;97678.66;5030422;28;20456;-71
2022/03/03 01:25:38;;;;;;;24.63;16.33;;;;;;;5.32;46.41;97678.34;5023926;28;20191;-72
2022/03/03 01:28:04;;;;;;;27.63;16.57;;;;;;;5.32;46.43;97683.56;5031458;28;20231;-72
2022/03/03 01:30:29;;;;;;;30.73;17.40;;;;;;;5.27;46.55;97680.47;5030541;28;20221;-72
2022/03/03 01:32:55;;;;;;;28.13;16.27;;;;;;;5.20;46.35;97679.22;5030861;28;20256;-70
2022/03/03 01:35:20;;;;;;;27.07;14.87;;;;;;;5.16;46.17;97672.59;5030499;28;20208;-73
2022/03/03 01:37:46;;;;;;;27.53;15.80;;;;;;;5.08;46.42;97660.94;5031124;28;20650;-71
2022/03/03 01:40:12;;;;;;;25.67;16.73;;;;;;;5.10;47.42;97665.19;5029920;28;20200;-70
2022/03/03 01:42:37;;;;;;;23.80;15.80;;;;;;;5.14;47.19;97656.25;5013323;28;20303;-70
2022/03/03 01:45:03;;;;;;;29.20;17.30;;;;;;;5.10;47.50;97644.41;5012801;28;20180;-72
2022/03/03 01:47:28;;;;;;;26.30;16.60;;;;;;;5.15;47.04;97637.13;5031071;28;20184;-72
2022/03/03 01:49:55;;;;;;;27.80;17.20;;;;;;;5.18;47.37;97636.91;5030908;28;20449;-73
2022/03/03 01:52:21;;;;;;;31.90;18.77;;;;;;;5.16;46.42;97644.00;5030436;28;20247;-72
2022/03/03 01:54:47;;;;;;;34.13;18.30;;;;;;;5.19;46.77;97638.56;5012938;28;20935;-72
2022/03/03 01:57:17;;;;;;;23.67;16.80;;;;;;;5.14;46.94;97628.50;5013085;28;20188;-72
2022/03/03 01:59:43;;;;;;;28.67;16.80;;;;;;;5.17;47.27;97636.09;5030432;28;20506;-72
2022/03/03 02:02:10;;;;;;;25.50;17.87;;;;;;;5.13;47.04;97634.63;5030967;28;20434;-73
2022/03/03 02:04:36;;;;;;;27.03;17.60;;;;;;;5.14;46.94;97640.66;5030359;28;20423;-72
2022/03/03 02:07:02;;;;;;;24.90;17.37;;;;;;;5.12;47.14;97637.34;5037503;28;20493;-72
2022/03/03 02:09:28;;;;;;;27.40;18.50;;;;;;;5.12;46.54;97637.34;5031027;28;20970;-71
2022/03/03 02:11:53;;;;;;;34.33;16.50;;;;;;;5.11;46.55;97638.28;5012945;28;20187;-72
2022/03/03 02:14:18;;;;;;;26.77;16.60;;;;;;;5.08;46.85;97636.72;5030471;28;20180;-73
2022/03/03 02:16:44;;;;;;;27.07;18.57;;;;;;;4.89;46.24;97639.78;5030363;28;20726;-72
2022/03/03 02:19:17;;;;;;;26.83;17.57;;;;;;;4.68;48.08;97634.28;5030153;28;20226;-73
2022/03/03 02:21:47;;;;;;;28.60;18.43;;;;;;;4.80;47.60;97635.19;5030812;28;20644;-72
2022/03/03 02:24:13;;;;;;;27.20;17.10;;;;;;;4.91;47.46;97640.50;5030571;28;20443;-72
2022/03/03 02:26:39;;;;;;;27.90;17.83;;;;;;;4.98;47.50;97633.13;5030176;28;20836;-72
2022/03/03 02:29:05;;;;;;;23.80;16.40;;;;;;;4.99;47.12;97626.97;5036342;28;20504;-72
2022/03/03 02:31:30;;;;;;;28.17;17.03;;;;;;;5.00;47.41;97634.66;5030883;28;20512;-70
2022/03/03 02:33:57;;;;;;;27.60;17.43;;;;;;;4.97;47.26;97644.44;5030694;28;20273;-69
2022/03/03 02:36:24;;;;;;;28.20;18.30;;;;;;;4.94;47.18;97635.06;5029696;28;20262;-73
2022/03/03 02:38:52;;;;;;;26.50;16.47;;;;;;;4.96;47.22;97635.81;5030471;28;20479;-70
2022/03/03 02:41:18;;;;;;;25.70;16.50;;;;;;;4.92;46.68;97636.94;5030379;28;20549;-71
2022/03/03 02:43:43;;;;;;;29.97;18.00;;;;;;;4.92;46.67;97634.34;5012422;28;20511;-71
2022/03/03 02:46:09;;;;;;;29.80;17.67;;;;;;;4.87;47.26;97639.88;5030150;28;20189;-72
2022/03/03 02:48:34;;;;;;;26.73;16.90;;;;;;;4.84;46.92;97640.09;5030176;28;20189;-73
2022/03/03 02:51:00;;;;;;;24.77;16.40;;;;;;;4.85;47.35;97652.13;5030568;28;20195;-71
2022/03/03 02:53:26;;;;;;;26.40;17.30;;;;;;;4.80;47.05;97645.59;5034160;28;20185;-71
2022/03/03 02:55:52;;;;;;;25.87;17.23;;;;;;;4.75;47.41;97646.75;5033551;28;20201;-69
2022/03/03 02:58:17;;;;;;;23.07;17.23;;;;;;;4.66;47.03;97652.56;5016016;28;20931;-72
2022/03/03 03:00:44;;;;;;;27.67;18.00;;;;;;;4.61;47.88;97639.06;5034144;28;20449;-72
2022/03/03 03:03:10;;;;;;;25.53;17.50;;;;;;;4.65;47.68;97639.69;5033846;28;20185;-71
2022/03/03 03:05:36;;;;;;;28.07;16.93;;;;;;;4.61;47.25;97637.28;5015699;28;20457;-71
2022/03/03 03:08:03;;;;;;;25.87;16.70;;;;;;;4.66;47.63;97631.81;5016229;28;20269;-71
2022/03/03 03:10:28;;;;;;;30.00;17.33;;;;;;;4.64;46.94;97631.06;5033572;28;20584;-72
2022/03/03 03:12:54;;;;;;;29.53;17.47;;;;;;;4.65;47.82;97630.16;5033902;28;20425;-72
2022/03/03 03:15:20;;;;;;;27.70;17.80;;;;;;;4.63;47.64;97619.03;5015434;28;20685;-71
2022/03/03 03:17:45;;;;;;;30.13;18.23;;;;;;;4.63;47.59;97613.84;5000179;28;20428;-71
2022/03/03 03:20:12;;;;;;;30.83;16.97;;;;;;;4.66;47.65;97615.38;5033599;28;20203;-72
2022/03/03 03:22:37;;;;;;;31.40;17.50;;;;;;;4.64;47.96;97612.91;5033465;28;20268;-71
2022/03/03 03:25:05;;;;;;;24.53;15.63;;;;;;;4.60;47.28;97614.84;5033438;28;20509;-72
2022/03/03 03:27:30;;;;;;;26.17;16.97;;;;;;;4.64;47.21;97605.09;5033725;28;20186;-72
2022/03/03 03:29:55;;;;;;;28.27;17.43;;;;;;;4.70;47.06;97609.06;5033582;28;20469;-73
2022/03/03 03:32:21;;;;;;;34.03;18.33;;;;;;;4.67;46.69;97606.66;5033312;28;20230;-70
2022/03/03 03:34:46;;;;;;;28.60;18.50;;;;;;;4.62;47.02;97604.38;5031077;28;20180;-71
2022/03/03 03:37:12;;;;;;;26.47;17.50;;;;;;;4.58;46.84;97606.34;5033061;28;20526;-71
2022/03/03 03:39:37;;;;;;;30.50;17.97;;;;;;;4.55;46.96;97600.53;5032916;28;20201;-72
2022/03/03 03:42:03;;;;;;;27.20;17.20;;;;;;;4.42;47.79;97603.13;5033440;28;20242;-72
2022/03/03 03:44:29;;;;;;;30.40;17.00;;;;;;;4.46;47.18;97607.19;5015415;28;20192;-72
2022/03/03 03:46:54;;;;;;;33.73;19.60;;;;;;;4.46;47.45;97596.81;5033300;28;20424;-71
2022/03/03 03:49:20;;;;;;;32.83;19.03;;;;;;;4.32;47.15;97592.53;5032599;28;20212;-72
2022/03/03 03:51:45;;;;;;;27.30;18.17;;;;;;;4.18;47.75;97596.06;5033599;28;20179;-72
2022/03/03 03:54:11;;;;;;;40.10;18.70;;;;;;;4.15;47.64;97586.72;5032646;28;20180;-70
2022/03/03 03:56:36;;;;;;;28.83;17.17;;;;;;;4.15;47.97;97586.72;5015277;28;20283;-72
2022/03/03 03:59:02;;;;;;;29.57;19.60;;;;;;;4.25;47.66;97586.09;5032759;28;20547;-71
2022/03/03 04:01:30;;;;;;;28.37;18.10;;;;;;;4.30;47.73;97587.47;5015352;28;20246;-71
2022/03/03 04:03:56;;;;;;;27.70;17.53;;;;;;;4.32;48.05;97587.34;5032417;28;20526;-70
2022/03/03 04:06:22;;;;;;;32.50;19.77;;;;;;;4.33;47.95;97583.81;5032056;28;20513;-72
2022/03/03 04:08:47;;;;;;;32.70;20.83;;;;;;;4.31;47.42;97583.09;5032721;28;20731;-73
2022/03/03 04:11:13;;;;;;;31.20;18.77;;;;;;;4.33;47.81;97589.00;5032788;28;20280;-73
2022/03/03 04:13:38;;;;;;;28.67;19.27;;;;;;;4.29;47.56;97591.00;5031656;28;20180;-71
2022/03/03 04:16:04;;;;;;;30.40;19.07;;;;;;;4.31;47.52;97588.28;5036983;28;20299;-71
2022/03/03 04:18:29;;;;;;;30.17;19.33;;;;;;;4.34;47.55;97584.66;5034506;28;20208;-72
2022/03/03 04:20:55;;;;;;;30.10;19.40;;;;;;;4.34;47.55;97585.47;5044456;28;20546;-73
2022/03/03 04:23:20;;;;;;;28.80;17.90;;;;;;;4.33;47.49;97581.22;5034671;28;20188;-71
2022/03/03 04:25:45;;;;;;;33.03;19.80;;;;;;;4.28;47.13;97578.13;5034985;28;20618;-73
2022/03/03 04:28:11;;;;;;;27.77;18.50;;;;;;;4.24;47.34;97585.25;5034852;28;20179;-72
2022/03/03 04:30:36;;;;;;;31.33;18.37;;;;;;;4.29;47.86;97588.38;5042572;28;20282;-71
2022/03/03 04:33:02;;;;;;;29.20;18.40;;;;;;;4.32;47.57;97576.16;5039482;28;20181;-71
2022/03/03 04:35:28;;;;;;;32.37;19.53;;;;;;;4.29;47.50;97577.16;5042122;28;20204;-71
2022/03/03 04:37:54;;;;;;;34.93;18.50;;;;;;;4.30;47.89;97571.88;5035609;28;20687;-72
2022/03/03 04:40:19;;;;;;;30.07;17.90;;;;;;;4.35;47.71;97574.16;5028484;28;20448;-72
2022/03/03 04:42:45;;;;;;;32.17;19.73;;;;;;;4.36;47.65;97573.25;5035945;28;20176;-73
2022/03/03 04:45:10;;;;;;;29.33;18.30;;;;;;;4.33;47.00;97570.84;5035001;28;20310;-73
2022/03/03 04:47:36;;;;;;;27.17;17.90;;;;;;;4.36;47.37;97567.19;5018270;28;20189;-73
2022/03/03 04:50:02;;;;;;;30.03;18.50;;;;;;;4.38;46.93;97566.19;5037064;28;20247;-72
2022/03/03 04:52:28;;;;;;;36.60;19.57;;;;;;;4.36;47.44;97562.84;5033468;28;20185;-72
2022/03/03 04:54:53;;;;;;;32.77;19.70;;;;;;;4.35;47.05;97571.56;5023537;28;20448;-73
2022/03/03 04:57:19;;;;;;;27.47;17.73;;;;;;;4.39;47.22;97567.00;5029382;28;20192;-72
2022/03/03 04:59:44;;;;;;;29.73;19.13;;;;;;;4.30;47.09;97560.66;5031786;28;20199;-72
2022/03/03 05:02:10;;;;;;;33.60;19.03;;;;;;;4.34;47.31;97567.31;5035362;28;20180;-74
2022/03/03 05:04:35;;;;;;;29.00;18.80;;;;;;;4.39;47.77;97567.84;5038361;28;20287;-71
2022/03/03 05:07:01;;;;;;;28.53;17.37;;;;;;;4.32;47.87;97571.78;5039336;28;20259;-72
2022/03/03 05:09:26;;;;;;;27.53;17.10;;;;;;;4.32;47.17;97566.59;5039093;28;20208;-73
2022/03/03 05:11:52;;;;;;;30.53;18.17;;;;;;;4.23;47.16;97564.63;5035640;28;20187;-72
2022/03/03 05:14:17;;;;;;;31.60;18.80;;;;;;;4.21;47.69;97559.53;5039188;28;20550;-73
2022/03/03 05:16:43;;;;;;;31.33;19.17;;;;;;;4.22;48.01;97549.97;5020079;28;20380;-72
2022/03/03 05:19:08;;;;;;;38.77;17.77;;;;;;;4.27;47.99;97548.75;5032269;28;20200;-71
2022/03/03 05:21:34;;;;;;;29.87;19.57;;;;;;;4.27;48.19;97546.13;5032149;28;20224;-71
2022/03/03 05:23:59;;;;;;;31.00;20.27;;;;;;;4.30;47.65;97542.50;5031838;28;20272;-71
2022/03/03 05:26:25;;;;;;;33.73;21.23;;;;;;;4.24;47.70;97535.97;5030677;28;20271;-70
2022/03/03 05:28:50;;;;;;;32.33;19.20;;;;;;;4.24;48.15;97540.34;5031091;28;20902;-71
2022/03/03 05:31:16;;;;;;;27.80;19.23;;;;;;;4.25;47.52;97535.03;5030789;28;20199;-71
2022/03/03 05:33:43;;;;;;;37.77;18.80;;;;;;;4.23;47.91;97531.69;5031132;28;20187;-72
2022/03/03 05:36:10;;;;;;;30.07;18.73;;;;;;;4.24;47.97;97528.19;5030089;28;20208;-72
2022/03/03 05:38:36;;;;;;;27.60;18.70;;;;;;;4.20;47.86;97533.69;5031309;28;20455;-72
2022/03/03 05:41:04;;;;;;;31.50;18.20;;;;;;;4.26;47.96;97536.69;5030681;28;20441;-71
2022/03/03 05:43:31;;;;;;;30.10;19.30;;;;;;;4.25;47.62;97535.03;5031023;28;20469;-72
2022/03/03 05:45:57;;;;;;;27.97;19.63;;;;;;;4.24;47.04;97541.16;5030177;28;20497;-70
2022/03/03 05:48:25;;;;;;;35.20;20.10;;;;;;;4.26;46.78;97535.88;5030824;28;20423;-73
2022/03/03 05:50:51;;;;;;;36.10;19.27;;;;;;;4.29;47.23;97543.44;5030640;28;20431;-72
2022/03/03 05:53:17;;;;;;;32.67;19.30;;;;;;;4.26;47.38;97544.47;5030859;28;20438;-72
2022/03/03 05:55:52;;;;;;;30.43;19.27;;;;;;;4.23;47.27;97546.47;5029879;28;20467;-72
2022/03/03 05:58:20;;;;;;;33.63;21.13;;;;;;;4.09;47.53;97550.81;5030572;28;20179;-73
2022/03/03 06:00:48;;;;;;;33.80;20.60;;;;;;;4.10;47.37;97551.63;5030847;28;20434;-71
2022/03/03 06:03:18;;;;;;;30.67;21.00;;;;;;;3.91;47.76;97546.84;5012367;28;20420;-72
2022/03/03 06:05:49;;;;;;;35.87;20.50;;;;;;;3.51;49.13;97543.38;5012836;28;20428;-72
2022/03/03 06:08:20;;;;;;;33.70;20.60;;;;;;;3.65;48.69;97544.22;5030970;28;20462;-72
2022/03/03 06:10:50;;;;;;;33.27;20.20;;;;;;;3.71;49.32;97533.44;5030774;28;20443;-72
2022/03/03 06:13:26;;;;;;;35.83;20.17;;;;;;;3.82;49.11;97538.75;5030487;28;20427;-72
2022/03/03 06:15:52;;;;;;;33.87;19.80;;;;;;;3.79;48.83;97535.53;4996661;28;20462;-71
2022/03/03 06:18:29;;;;;;;30.20;19.53;;;;;;;3.87;48.96;97533.25;5030954;28;20844;-72
2022/03/03 06:20:55;;;;;;;32.77;19.67;;;;;;;3.95;48.86;97549.16;5030383;28;20647;-72
2022/03/03 06:23:21;;;;;;;32.20;18.80;;;;;;;4.05;48.26;97536.38;5030385;28;20430;-72
2022/03/03 06:26:05;;;;;;;31.40;20.80;;;;;;;4.13;48.46;97547.09;5011724;28;20740;-72
2022/03/03 06:28:31;;;;;;;39.77;22.40;;;;;;;4.22;48.22;97544.78;5016652;28;20183;-72
2022/03/03 06:30:57;;;;;;;37.77;21.13;;;;;;;4.27;47.95;97540.13;5016734;28;20918;-72
2022/03/03 06:33:23;;;;;;;35.77;22.17;;;;;;;4.38;47.83;97537.63;5034315;28;20455;-72
2022/03/03 06:35:48;;;;;;;40.00;21.30;;;;;;;4.60;47.22;97529.16;5033409;28;20983;-73
2022/03/03 06:38:14;;;;;;;34.20;21.10;;;;;;;4.76;47.13;97535.91;5033754;28;20184;-72
2022/03/03 06:40:40;;;;;;;34.67;22.00;;;;;;;4.95;46.72;97522.44;5034272;28;20522;-71
2022/03/03 06:43:06;;;;;;;33.60;20.20;;;;;;;5.10;46.67;97515.34;5034367;28;20185;-72
2022/03/03 06:45:32;;;;;;;34.00;20.83;;;;;;;5.20;45.88;97507.69;5016400;28;20438;-70
2022/03/03 06:47:59;;;;;;;29.90;20.57;;;;;;;5.05;46.88;97507.03;5034353;28;20236;-71
2022/03/03 06:50:25;;;;;;;44.10;22.13;;;;;;;5.24;46.65;97503.94;5033547;28;20455;-73
2022/03/03 06:52:51;;;;;;;38.43;22.00;;;;;;;5.50;46.00;97501.19;5016307;28;20843;-73
2022/03/03 06:55:24;;;;;;;37.87;22.87;;;;;;;5.64;45.90;97488.00;5031128;28;20464;-73
2022/03/03 06:57:55;;;;;;;34.87;21.87;;;;;;;5.83;45.20;97481.41;5033560;28;20472;-72
2022/03/03 07:00:22;;;;;;;48.27;23.60;;;;;;;5.97;44.80;97481.22;5038416;28;20443;-72
2022/03/03 07:02:48;;;;;;;34.27;21.60;;;;;;;6.02;45.55;97464.47;5036760;28;20514;-72
2022/03/03 07:05:17;;;;;;;35.73;21.37;;;;;;;5.97;46.00;97455.19;5031761;28;20434;-72
2022/03/03 07:07:44;;;;;;;41.87;22.47;;;;;;;5.98;45.47;97446.44;5016545;28;20455;-71
2022/03/03 07:10:12;;;;;;;41.27;22.37;;;;;;;5.90;45.83;97441.00;5016267;28;20456;-72
2022/03/03 07:12:37;;;;;;;41.43;21.70;;;;;;;6.01;45.26;97448.00;5034390;28;20425;-73
2022/03/03 07:15:04;;;;;;;35.27;21.80;;;;;;;6.14;44.94;97442.69;5033709;28;20821;-71
2022/03/03 07:17:45;;;;;;;47.83;21.50;;;;;;;6.14;44.71;97442.69;5033646;28;20268;-71
2022/03/03 07:20:16;;;;;;;32.00;20.37;;;;;;;6.01;44.83;97453.19;5034007;28;20484;-72
2022/03/03 07:23:09;;;;;;;43.77;20.80;;;;;;;6.06;44.60;97450.25;5034302;28;20430;-72
2022/03/03 07:25:41;;;;;;;34.20;20.60;;;;;;;6.06;44.81;97464.09;5033861;28;20415;-72
2022/03/03 07:28:11;;;;;;;35.90;21.87;;;;;;;6.13;45.17;97467.88;5016204;28;20430;-71
2022/03/03 07:30:43;;;;;;;36.17;21.50;;;;;;;6.15;45.73;97467.78;5033488;28;21111;-72
2022/03/03 07:33:38;;;;;;;35.80;23.07;;;;;;;5.93;46.16;97477.16;5033060;28;20429;-71
2022/03/03 07:36:07;;;;;;;32.13;20.90;;;;;;;5.95;46.85;97479.66;5033555;28;20508;-73
2022/03/03 07:38:37;;;;;;;37.57;22.57;;;;;;;6.18;46.46;97477.94;5023849;28;20508;-72
2022/03/03 07:41:03;;;;;;;40.40;22.50;;;;;;;6.11;46.30;97485.38;5033665;28;20436;-71
2022/03/03 07:43:29;;;;;;;33.87;21.90;;;;;;;6.22;46.26;97489.78;5033071;28;20420;-72
2022/03/03 07:45:54;;;;;;;38.37;22.53;;;;;;;6.41;45.11;97490.97;5033831;28;20416;-72
2022/03/03 07:48:23;;;;;;;33.03;22.27;;;;;;;6.55;44.80;97490.69;5033104;28;20505;-72
2022/03/03 07:50:49;;;;;;;36.23;22.30;;;;;;;6.65;44.97;97487.41;5033416;28;20232;-72
2022/03/03 07:53:15;;;;;;;34.33;21.87;;;;;;;6.68;45.44;97493.19;5015052;28;20465;-72
2022/03/03 07:55:48;;;;;;;44.37;22.37;;;;;;;6.70;45.36;97498.25;5033048;28;20469;-72
2022/03/03 07:58:16;;;;;;;37.47;22.83;;;;;;;6.73;44.71;97487.59;5033116;28;20182;-72
2022/03/03 08:00:48;;;;;;;35.17;23.00;;;;;;;6.76;44.92;97484.78;5015258;28;20477;-71
2022/03/03 08:03:18;;;;;;;40.07;24.37;;;;;;;6.89;44.69;97484.59;5032907;28;20430;-72
2022/03/03 08:05:45;;;;;;;35.17;23.43;;;;;;;6.82;44.60;97484.25;5032935;28;20425;-72
2022/03/03 08:08:14;;;;;;;33.23;23.03;;;;;;;6.86;44.36;97487.47;5014697;28;20994;-72
2022/03/03 08:10:41;;;;;;;36.03;23.40;;;;;;;7.04;44.01;97485.19;5038581;28;21154;-71
2022/03/03 08:13:10;;;;;;;39.73;24.47;;;;;;;7.16;42.88;97484.19;5036639;28;20829;-72
2022/03/03 08:15:38;;;;;;;34.50;22.87;;;;;;;7.39;42.60;97481.50;5031046;28;20455;-72
2022/03/03 08:18:04;;;;;;;33.70;22.10;;;;;;;7.61;42.22;97479.72;5015313;28;20424;-72
2022/03/03 08:20:30;;;;;;;36.87;22.77;;;;;;;7.84;42.08;97476.03;5032470;28;20511;-72
2022/03/03 08:22:58;;;;;;;33.30;21.90;;;;;;;8.08;41.13;97476.72;5032869;28;20430;-73
2022/03/03 08:25:24;;;;;;;39.60;23.63;;;;;;;8.42;41.62;97479.88;5014387;28;20479;-72
2022/03/03 08:27:50;;;;;;;33.37;22.07;;;;;;;8.81;40.16;97460.91;5032541;28;20471;-73
2022/03/03 08:30:16;;;;;;;31.73;21.87;;;;;;;9.20;38.83;97462.72;5032766;28;20453;-72
2022/03/03 08:32:58;;;;;;;35.90;23.07;;;;;;;9.46;38.33;97465.63;5032944;28;20425;-72
2022/03/03 08:35:26;;;;;;;41.83;22.17;;;;;;;9.74;38.25;97462.28;5013606;28;20204;-73
2022/03/03 08:37:55;;;;;;;32.30;23.37;;;;;;;10.00;38.03;97459.88;5032847;28;20426;-72
2022/03/03 08:40:22;;;;;;;31.93;21.57;;;;;;;10.15;37.19;97462.84;5032483;28;20497;-73
2022/03/03 08:42:51;;;;;;;33.10;22.77;;;;;;;10.26;37.02;97459.25;5032690;28;20419;-72
2022/03/03 08:45:18;;;;;;;33.27;22.07;;;;;;;10.47;36.10;97466.88;5031597;28;20744;-72
2022/03/03 08:47:44;;;;;;;33.20;23.97;;;;;;;10.67;36.33;97467.63;5032335;28;20435;-71
2022/03/03 08:50:13;;;;;;;32.90;21.77;;;;;;;10.79;35.11;97472.66;5031824;28;20441;-72
2022/03/03 08:52:41;;;;;;;32.07;21.77;;;;;;;11.00;34.71;97467.13;5032080;28;20249;-72
2022/03/03 08:55:08;;;;;;;33.90;21.87;;;;;;;11.19;34.83;97472.28;5032003;28;20823;-72
2022/03/03 08:57:33;;;;;;;47.10;21.83;;;;;;;11.37;34.45;97463.53;5024411;28;20422;-72
2022/03/03 08:59:59;;;;;;;37.13;22.50;;;;;;;11.64;34.01;97456.53;5016679;28;20979;-71
2022/03/03 09:02:24;;;;;;;35.67;22.93;;;;;;;11.76;33.82;97465.00;5032277;28;20274;-71
2022/03/03 09:04:50;;;;;;;30.00;22.23;;;;;;;12.05;33.49;97470.00;5013497;28;20193;-72
2022/03/03 09:07:15;;;;;;;31.53;22.33;;;;;;;12.35;32.43;97467.81;5031619;28;20237;-72
2022/03/03 09:09:42;;;;;;;35.60;23.43;;;;;;;12.60;32.76;97466.16;5031751;28;20243;-72
2022/03/03 09:12:08;;;;;;;34.10;22.77;;;;;;;12.72;32.88;97474.56;5031525;28;20194;-71
2022/03/03 09:14:34;;;;;;;40.33;23.80;;;;;;;13.01;32.57;97454.09;5019190;28;20426;-71
2022/03/03 09:16:59;;;;;;;34.00;23.47;;;;;;;13.31;31.72;97459.72;5032040;28;20612;-72
2022/03/03 09:19:26;;;;;;;39.50;22.40;;;;;;;13.59;31.97;97460.25;5031774;28;20223;-71
2022/03/03 09:21:51;;;;;;;33.10;22.83;;;;;;;13.80;31.57;97466.81;5013766;28;20186;-72
2022/03/03 09:24:17;;;;;;;35.37;23.60;;;;;;;13.89;31.37;97460.53;5030136;28;20426;-72
2022/03/03 09:26:42;;;;;;;34.90;24.23;;;;;;;14.15;31.17;97464.78;5024864;28;20184;-71
2022/03/03 09:29:08;;;;;;;36.47;23.47;;;;;;;14.38;30.53;97453.50;5031287;28;20306;-72
2022/03/03 09:31:34;;;;;;;33.43;23.73;;;;;;;14.61;30.51;97463.31;5031164;28;20180;-72
2022/03/03 09:33:59;;;;;;;37.43;24.80;;;;;;;14.59;29.63;97460.84;5031326;28;20605;-72
2022/03/03 09:36:24;;;;;;;32.53;23.93;;;;;;;14.95;30.02;97457.72;5030921;28;20219;-72
2022/03/03 09:38:50;;;;;;;40.43;23.00;;;;;;;15.29;28.99;97456.53;5031242;28;20207;-73
2022/03/03 09:41:16;;;;;;;40.97;22.93;;;;;;;15.52;28.64;97460.97;5030802;28;20203;-72
2022/03/03 09:43:42;;;;;;;35.77;23.40;;;;;;;15.72;27.97;97465.75;5031428;28;20184;-72
2022/03/03 09:46:09;;;;;;;38.90;24.00;;;;;;;15.54;27.73;97473.97;5030825;28;20721;-72
2022/03/03 09:48:35;;;;;;;31.00;22.80;;;;;;;15.69;27.83;97461.66;5031526;28;20427;-72
2022/03/03 09:51:00;;;;;;;37.90;21.90;;;;;;;15.62;27.90;97472.09;5030960;28;20506;-72
2022/03/03 09:53:26;;;;;;;31.70;23.00;;;;;;;15.70;28.00;97463.28;5031133;28;20429;-73
2022/03/03 09:55:51;;;;;;;42.30;25.03;;;;;;;15.62;27.35;97461.53;5030915;28;20204;-72
2022/03/03 09:58:17;;;;;;;34.40;24.07;;;;;;;15.78;27.81;97460.56;5030382;28;20203;-72
2022/03/03 10:00:43;;;;;;;45.17;23.27;;;;;;;16.03;28.22;97463.00;5030457;28;20570;-73
2022/03/03 10:03:14;;;;;;;37.13;23.33;;;;;;;15.96;26.55;97462.09;5013742;28;20620;-72
2022/03/03 10:05:49;;;;;;;39.30;24.50;;;;;;;15.69;26.50;97456.38;5031047;28;20594;-72
2022/03/03 10:08:16;;;;;;;35.13;24.80;;;;;;;15.47;26.98;97453.59;5034168;28;20424;-72
2022/03/03 10:10:54;;;;;;;32.83;23.80;;;;;;;15.73;27.54;97446.25;5030172;28;20488;-72
2022/03/03 10:13:19;;;;;;;31.20;22.90;;;;;;;15.90;26.89;97460.16;5031053;28;20479;-72
2022/03/03 10:15:51;;;;;;;38.27;23.00;;;;;;;15.73;26.67;97457.66;5030862;28;20458;-73
2022/03/03 10:18:17;;;;;;;34.90;26.40;;;;;;;15.92;27.05;97450.22;5030229;28;20184;-73
2022/03/03 10:20:53;;;;;;;38.73;23.27;;;;;;;16.04;26.75;97458.56;5030510;28;20472;-72
2022/03/03 10:23:23;;;;;;;36.90;23.13;;;;;;;16.21;26.11;97456.56;5030480;28;20425;-73
2022/03/03 10:25:52;;;;;;;33.20;23.13;;;;;;;16.38;26.10;97455.34;5030844;28;20556;-72
2022/03/03 10:28:20;;;;;;;34.20;21.83;;;;;;;16.54;25.69;97454.34;5030325;28;20450;-73
2022/03/03 10:31:02;;;;;;;31.40;22.40;;;;;;;16.40;25.36;97463.13;5030791;28;20525;-74
2022/03/03 10:33:49;;;;;;;29.37;22.10;;;;;;;16.66;25.94;97452.03;5030418;28;20466;-72
2022/03/03 10:36:23;;;;;;;32.60;22.33;;;;;;;17.03;25.16;97460.03;5029789;28;20493;-72
2022/03/03 10:39:03;;;;;;;31.20;21.90;;;;;;;17.10;24.68;97454.81;5030447;28;20457;-73
2022/03/03 10:41:40;;;;;;;32.90;23.13;;;;;;;16.95;24.70;97447.72;5012726;28;20463;-72
2022/03/03 10:44:19;;;;;;;32.10;22.50;;;;;;;17.28;24.48;97449.06;5012993;28;20434;-72
2022/03/03 10:47:05;;;;;;;33.03;23.27;;;;;;;17.51;24.58;97446.22;5012653;28;20504;-72
2022/03/03 10:49:31;;;;;;;33.87;23.53;;;;;;;17.78;23.76;97447.25;5030293;28;20438;-74
2022/03/03 10:52:16;;;;;;;36.30;21.40;;;;;;;17.89;23.62;97442.44;5030674;28;20437;-72
2022/03/03 10:54:53;;;;;;;35.27;22.33;;;;;;;18.08;23.99;97438.31;5023244;28;20427;-72
2022/03/03 10:57:39;;;;;;;34.10;21.93;;;;;;;17.98;23.42;97440.50;5030224;28;20760;-72
2022/03/03 11:00:19;;;;;;;34.07;22.43;;;;;;;18.10;23.25;97438.94;5030448;28;20924;-73
2022/03/03 11:02:46;;;;;;;31.80;23.00;;;;;;;18.33;23.23;97424.56;5030331;28;20430;-73
2022/03/03 11:05:14;;;;;;;35.93;22.70;;;;;;;18.58;22.63;97422.25;5029275;28;20465;-73
2022/03/03 11:07:41;;;;;;;29.50;22.20;;;;;;;18.79;22.07;97429.22;5030689;28;20423;-72
2022/03/03 11:10:09;;;;;;;32.67;22.20;;;;;;;18.93;22.14;97422.16;5030148;28;20911;-72
2022/03/03 11:12:35;;;;;;;33.33;21.53;;;;;;;18.91;21.14;97424.19;5023025;28;20415;-73
2022/03/03 11:15:00;;;;;;;31.20;22.10;;;;;;;18.62;21.95;97418.16;5015365;28;20430;-72
2022/03/03 11:17:26;;;;;;;30.97;22.33;;;;;;;18.84;21.77;97408.22;5033533;28;20708;-72
2022/03/03 11:19:52;;;;;;;33.13;22.60;;;;;;;19.04;21.45;97410.13;5016274;28;20196;-72
2022/03/03 11:22:18;;;;;;;32.37;21.67;;;;;;;18.95;21.38;97403.38;5033195;28;20301;-73
2022/03/03 11:24:45;;;;;;;33.20;21.63;;;;;;;18.64;21.01;97402.06;5016140;28;20423;-72